createdAt,value
2023-05-08T00:00:40.567Z,48.04
2023-05-08T00:03:07.113Z,48.14
2023-05-08T00:05:33.590Z,47.95
2023-05-08T00:08:00.020Z,48.04
2023-05-08T00:10:28.667Z,48.12
2023-05-08T00:12:55.758Z,48.07
2023-05-08T00:15:22.658Z,47.99
2023-05-08T00:17:49.168Z,48.04
2023-05-08T00:20:15.790Z,48.15
2023-05-08T00:22:42.304Z,48.27
2023-05-08T00:25:08.933Z,48.01
2023-05-08T00:27:36.740Z,47.93
2023-05-08T00:30:03.552Z,47.85
2023-05-08T00:32:30.192Z,47.86
2023-05-08T00:34:56.683Z,47.79
2023-05-08T00:37:23.129Z,47.84
2023-05-08T00:39:49.622Z,47.63
2023-05-08T00:42:16.182Z,47.76
2023-05-08T00:44:43.992Z,48.06
2023-05-08T00:47:10.530Z,48.13
2023-05-08T00:49:37.417Z,48.11
2023-05-08T00:52:05.442Z,47.80
2023-05-08T00:54:31.994Z,47.62
2023-05-08T00:56:58.535Z,47.65
2023-05-08T00:59:26.084Z,47.83
2023-05-08T01:01:54.017Z,47.73
2023-05-08T01:04:25.144Z,47.65
2023-05-08T01:06:51.819Z,47.52
2023-05-08T01:09:18.361Z,47.81
2023-05-08T01:11:49.724Z,48.03
2023-05-08T01:14:20.100Z,47.74
2023-05-08T01:16:58.550Z,47.62
2023-05-08T01:19:48.933Z,47.51
2023-05-08T01:22:31.246Z,47.49
2023-05-08T01:25:20.153Z,47.47
2023-05-08T01:28:10.628Z,47.58
2023-05-08T01:30:59.693Z,47.47
2023-05-08T01:33:34.830Z,47.82
2023-05-08T01:36:11.646Z,47.42
2023-05-08T01:38:53.772Z,47.46
2023-05-08T01:41:26.306Z,47.37
2023-05-08T01:44:02.707Z,47.20
2023-05-08T01:46:32.839Z,47.43
2023-05-08T01:49:06.672Z,47.23
2023-05-08T01:51:36.359Z,47.23
2023-05-08T01:54:08.620Z,47.35
2023-05-08T01:56:38.958Z,47.44
2023-05-08T01:59:07.384Z,47.53
2023-05-08T02:01:34.739Z,47.40
2023-05-08T02:04:05.508Z,47.33
2023-05-08T02:06:32.183Z,47.20
2023-05-08T02:09:00.625Z,47.10
2023-05-08T02:11:30.662Z,47.06
2023-05-08T02:13:59.304Z,47.19
2023-05-08T02:16:27.151Z,47.08
2023-05-08T02:18:55.615Z,46.90
2023-05-08T02:21:23.750Z,47.05
2023-05-08T02:23:51.838Z,47.35
2023-05-08T02:26:19.186Z,47.04
2023-05-08T02:28:46.717Z,47.03
2023-05-08T02:31:14.137Z,46.82
2023-05-08T02:33:43.347Z,46.84
2023-05-08T02:36:12.910Z,46.85
2023-05-08T02:38:45.463Z,46.91
2023-05-08T02:41:13.459Z,46.97
2023-05-08T02:43:40.282Z,47.10
2023-05-08T02:46:14.740Z,47.07
2023-05-08T02:48:48.718Z,47.09
2023-05-08T02:51:20.754Z,46.78
2023-05-08T02:53:54.613Z,46.69
2023-05-08T02:56:26.632Z,46.71
2023-05-08T02:58:59.826Z,46.63
2023-05-08T03:01:37.816Z,46.54
2023-05-08T03:04:08.616Z,46.54
2023-05-08T03:06:38.966Z,46.81
2023-05-08T03:09:10.942Z,46.89
2023-05-08T03:11:42.438Z,46.85
2023-05-08T03:14:12.430Z,46.67
2023-05-08T03:16:42.840Z,46.59
2023-05-08T03:19:20.801Z,46.48
2023-05-08T03:21:51.317Z,46.35
2023-05-08T03:24:22.547Z,46.49
2023-05-08T03:26:49.786Z,46.59
2023-05-08T03:29:18.577Z,46.53
2023-05-08T03:31:45.426Z,46.74
2023-05-08T03:34:13.434Z,46.82
2023-05-08T03:36:40.177Z,46.59
2023-05-08T03:39:06.819Z,46.47
2023-05-08T03:41:34.634Z,46.42
2023-05-08T03:44:02.961Z,46.42
2023-05-08T03:46:31.409Z,46.30
2023-05-08T03:48:58.435Z,46.37
2023-05-08T03:51:24.936Z,46.35
2023-05-08T03:53:51.529Z,46.54
2023-05-08T03:56:18.026Z,46.60
2023-05-08T03:58:50.434Z,46.42
2023-05-08T04:01:23.270Z,46.22
2023-05-08T04:03:56.287Z,46.27
2023-05-08T04:06:30.750Z,46.26
2023-05-08T04:09:05.525Z,46.31
2023-05-08T04:11:41.087Z,46.21
2023-05-08T04:14:12.814Z,46.22
2023-05-08T04:16:43.327Z,46.48
2023-05-08T04:19:15.072Z,46.54
2023-05-08T04:21:43.157Z,46.39
2023-05-08T04:24:14.720Z,46.20
2023-05-08T04:26:42.349Z,46.20
2023-05-08T04:29:11.071Z,46.17
2023-05-08T04:31:39.686Z,46.19
2023-05-08T04:34:07.804Z,46.26
2023-05-08T04:36:34.414Z,46.21
2023-05-08T04:39:00.956Z,46.51
2023-05-08T04:41:27.447Z,46.49
2023-05-08T04:43:54.387Z,46.50
2023-05-08T04:46:22.189Z,46.36
2023-05-08T04:48:48.645Z,46.34
2023-05-08T04:51:15.151Z,46.27
2023-05-08T04:53:41.591Z,46.30
2023-05-08T04:56:08.136Z,46.31
2023-05-08T04:58:34.603Z,46.25
2023-05-08T05:01:02.374Z,46.21
2023-05-08T05:03:30.100Z,46.21
2023-05-08T05:05:58.165Z,46.36
2023-05-08T05:08:24.858Z,46.63
2023-05-08T05:10:51.476Z,46.40
2023-05-08T05:13:18.029Z,46.34
2023-05-08T05:15:44.571Z,46.25
2023-05-08T05:18:11.174Z,46.22
2023-05-08T05:20:38.948Z,46.37
2023-05-08T05:23:05.428Z,46.21
2023-05-08T05:25:31.868Z,46.05
2023-05-08T05:27:58.394Z,46.07
2023-05-08T05:30:24.887Z,46.55
2023-05-08T05:32:51.493Z,46.45
2023-05-08T05:35:17.997Z,46.24
2023-05-08T05:37:45.772Z,46.17
2023-05-08T05:40:12.539Z,46.20
2023-05-08T05:42:39.091Z,46.22
2023-05-08T05:45:06.376Z,46.19
2023-05-08T05:47:32.807Z,46.22
2023-05-08T05:49:59.257Z,46.21
2023-05-08T05:52:25.709Z,46.59
2023-05-08T05:54:53.432Z,46.47
2023-05-08T05:57:19.910Z,46.31
2023-05-08T05:59:46.490Z,46.20
2023-05-08T06:02:12.950Z,46.28
2023-05-08T06:04:39.573Z,46.25
2023-05-08T06:07:05.985Z,46.03
2023-05-08T06:09:32.425Z,46.22
2023-05-08T06:12:00.192Z,46.35
2023-05-08T06:14:26.818Z,46.56
2023-05-08T06:16:53.344Z,46.31
2023-05-08T06:19:19.766Z,46.40
2023-05-08T06:21:46.194Z,46.26
2023-05-08T06:24:12.634Z,46.34
2023-05-08T06:26:39.052Z,46.21
2023-05-08T06:29:06.801Z,46.20
2023-05-08T06:31:33.562Z,46.37
2023-05-08T06:34:00.146Z,46.62
2023-05-08T06:36:26.655Z,46.67
2023-05-08T06:38:53.103Z,46.43
2023-05-08T06:41:19.557Z,46.34
2023-05-08T06:43:46.180Z,46.27
2023-05-08T06:46:13.950Z,46.51
2023-05-08T06:48:40.547Z,46.44
2023-05-08T06:51:07.034Z,46.32
2023-05-08T06:53:33.481Z,46.46
2023-05-08T06:56:00.051Z,46.85
2023-05-08T06:58:26.476Z,46.78
2023-05-08T07:00:52.902Z,46.56
2023-05-08T07:03:20.810Z,46.58
2023-05-08T07:05:47.259Z,46.60
2023-05-08T07:08:13.670Z,46.63
2023-05-08T07:10:40.153Z,46.71
2023-05-08T07:13:06.724Z,46.60
2023-05-08T07:15:33.392Z,46.78
2023-05-08T07:17:59.936Z,46.92
2023-05-08T07:20:28.164Z,46.89
2023-05-08T07:22:54.700Z,46.76
2023-05-08T07:25:21.155Z,46.78
2023-05-08T07:27:47.768Z,46.74
2023-05-08T07:30:14.568Z,46.86
2023-05-08T07:32:41.256Z,46.79
2023-05-08T07:35:10.493Z,46.72
2023-05-08T07:37:39.065Z,46.83
2023-05-08T07:40:06.427Z,47.02
2023-05-08T07:42:38.950Z,47.21
2023-05-08T07:45:06.118Z,46.96
2023-05-08T07:47:32.690Z,47.09
2023-05-08T07:49:59.130Z,47.12
2023-05-08T07:52:25.629Z,47.00
2023-05-08T07:54:53.345Z,47.02
2023-05-08T07:57:19.797Z,47.05
2023-05-08T07:59:46.351Z,47.37
2023-05-08T08:02:12.835Z,47.15
2023-05-08T08:04:39.380Z,47.28
2023-05-08T08:07:05.996Z,47.36
2023-05-08T08:09:32.447Z,47.33
2023-05-08T08:12:00.223Z,47.49
2023-05-08T08:14:26.725Z,47.42
2023-05-08T08:16:53.244Z,47.66
2023-05-08T08:19:19.797Z,47.65
2023-05-08T08:21:46.270Z,47.71
2023-05-08T08:24:12.731Z,47.59
2023-05-08T08:26:39.173Z,47.50
2023-05-08T08:29:06.985Z,47.58
2023-05-08T08:31:33.557Z,47.50
2023-05-08T08:34:00.150Z,47.63
2023-05-08T08:36:26.607Z,47.62
2023-05-08T08:38:53.456Z,47.89
2023-05-08T08:41:19.930Z,47.89
2023-05-08T08:43:46.426Z,47.75
2023-05-08T08:46:14.493Z,47.88
2023-05-08T08:48:45.023Z,47.86
2023-05-08T08:51:18.344Z,47.83
2023-05-08T08:53:49.448Z,47.93
2023-05-08T08:56:16.493Z,48.00
2023-05-08T08:58:49.777Z,48.24
2023-05-08T09:01:19.097Z,48.29
2023-05-08T09:03:47.550Z,48.38
2023-05-08T09:06:15.872Z,48.18
2023-05-08T09:08:42.901Z,48.30
2023-05-08T09:11:09.504Z,48.20
2023-05-08T09:13:36.070Z,48.05
2023-05-08T09:16:03.005Z,48.38
2023-05-08T09:18:30.789Z,48.50
2023-05-08T09:20:57.316Z,48.59
2023-05-08T09:23:24.466Z,48.40
2023-05-08T09:25:50.881Z,48.47
2023-05-08T09:28:18.207Z,48.54
2023-05-08T09:30:53.383Z,48.48
2023-05-08T09:33:21.142Z,48.48
2023-05-08T09:35:49.107Z,48.81
2023-05-08T09:38:33.533Z,48.75
2023-05-08T09:41:06.924Z,48.80
2023-05-08T09:43:33.542Z,48.83
2023-05-08T09:46:20.154Z,48.72
2023-05-08T09:48:46.613Z,48.81
2023-05-08T09:51:14.477Z,48.71
2023-05-08T09:53:41.103Z,48.59
2023-05-08T09:56:07.783Z,48.71
2023-05-08T09:58:38.139Z,48.80
2023-05-08T10:01:04.684Z,49.17
2023-05-08T10:03:46.524Z,49.17
2023-05-08T10:06:15.036Z,48.85
2023-05-08T10:08:41.546Z,48.89
2023-05-08T10:11:16.628Z,49.14
2023-05-08T10:13:43.774Z,48.97
2023-05-08T10:16:15.160Z,48.96
2023-05-08T10:18:47.273Z,49.01
2023-05-08T10:21:16.350Z,49.42
2023-05-08T10:23:43.966Z,49.29
2023-05-08T10:26:13.169Z,49.21
2023-05-08T10:28:44.165Z,49.15
2023-05-08T10:31:13.056Z,49.11
2023-05-08T10:33:41.118Z,48.96
2023-05-08T10:36:08.719Z,48.97
2023-05-08T10:38:37.770Z,48.86
2023-05-08T10:41:05.115Z,49.00
2023-05-08T10:43:33.396Z,49.42
2023-05-08T10:46:05.122Z,49.32
2023-05-08T10:48:50.486Z,49.25
2023-05-08T10:51:24.742Z,49.09
2023-05-08T10:53:57.371Z,49.18
2023-05-08T10:56:26.217Z,49.29
2023-05-08T10:58:56.214Z,49.47
2023-05-08T11:01:22.750Z,49.43
2023-05-08T11:03:49.843Z,49.25
2023-05-08T11:06:17.007Z,49.05
2023-05-08T11:08:46.502Z,49.30
2023-05-08T11:11:23.690Z,49.17
2023-05-08T11:13:54.508Z,49.08
2023-05-08T11:16:45.931Z,49.24
2023-05-08T11:19:16.892Z,49.30
2023-05-08T11:22:08.129Z,49.04
2023-05-08T11:24:35.521Z,49.27
2023-05-08T11:27:03.655Z,49.17
2023-05-08T11:29:30.171Z,49.13
2023-05-08T11:31:57.143Z,49.10
2023-05-08T11:34:43.753Z,49.49
2023-05-08T11:37:10.813Z,49.76
2023-05-08T11:39:37.412Z,49.42
2023-05-08T11:42:28.647Z,49.32
2023-05-08T11:45:05.230Z,49.31
2023-05-08T11:47:38.261Z,49.42
2023-05-08T11:50:05.519Z,49.42
2023-05-08T11:52:33.109Z,49.47
2023-05-08T11:55:03.831Z,49.63
2023-05-08T11:57:31.182Z,49.77
2023-05-08T11:59:57.628Z,49.58
2023-05-08T12:02:36.554Z,49.52
2023-05-08T12:05:03.139Z,49.67
2023-05-08T12:07:29.697Z,49.48
2023-05-08T12:09:56.266Z,49.52
2023-05-08T12:12:22.928Z,49.44
2023-05-08T12:14:49.831Z,49.84
2023-05-08T12:17:17.119Z,49.70
2023-05-08T12:19:45.139Z,49.59
2023-05-08T12:22:12.090Z,49.51
2023-05-08T12:24:39.041Z,49.63
2023-05-08T12:27:05.535Z,49.63
2023-05-08T12:29:35.870Z,49.42
2023-05-08T12:32:02.622Z,49.43
2023-05-08T12:34:29.297Z,49.74
2023-05-08T12:37:04.827Z,49.87
2023-05-08T12:39:35.245Z,49.65
2023-05-08T12:42:01.684Z,49.53
2023-05-08T12:44:30.127Z,49.56
2023-05-08T12:46:57.758Z,49.38
2023-05-08T12:49:26.418Z,49.26
2023-05-08T12:52:00.707Z,49.32
2023-05-08T12:54:33.647Z,49.75
2023-05-08T12:57:00.145Z,49.67
2023-05-08T12:59:31.543Z,49.40
2023-05-08T13:01:58.146Z,49.29
2023-05-08T13:04:24.869Z,49.24
2023-05-08T13:06:54.463Z,49.35
2023-05-08T13:09:20.950Z,49.20
2023-05-08T13:11:49.171Z,49.40
2023-05-08T13:14:15.765Z,49.54
2023-05-08T13:16:43.305Z,49.43
2023-05-08T13:19:09.868Z,49.33
2023-05-08T13:21:36.641Z,49.34
2023-05-08T13:24:03.403Z,49.34
2023-05-08T13:26:29.882Z,49.38
2023-05-08T13:28:57.673Z,49.49
2023-05-08T13:31:24.444Z,49.62
2023-05-08T13:33:50.965Z,49.62
2023-05-08T13:36:17.457Z,49.55
2023-05-08T13:38:43.916Z,49.59
2023-05-08T13:41:10.403Z,49.50
2023-05-08T13:43:36.951Z,49.31
2023-05-08T13:46:06.813Z,49.49
2023-05-08T13:48:33.635Z,49.40
2023-05-08T13:51:00.111Z,49.48
2023-05-08T13:53:26.597Z,49.63
2023-05-08T13:55:53.209Z,49.78
2023-05-08T13:58:19.637Z,49.59
2023-05-08T14:00:46.085Z,49.61
2023-05-08T14:03:14.061Z,49.47
2023-05-08T14:05:40.621Z,49.58
2023-05-08T14:08:07.078Z,49.41
2023-05-08T14:10:33.549Z,49.76
2023-05-08T14:13:00.019Z,49.94
2023-05-08T14:15:31.860Z,49.69
2023-05-08T14:18:03.373Z,49.64
2023-05-08T14:20:31.192Z,49.58
2023-05-08T14:23:00.100Z,49.79
2023-05-08T14:25:26.990Z,49.51
2023-05-08T14:27:53.571Z,49.79
2023-05-08T14:30:20.012Z,49.81
2023-05-08T14:32:46.505Z,49.69
2023-05-08T14:35:13.308Z,49.77
2023-05-08T14:37:41.246Z,49.73
2023-05-08T14:40:08.699Z,49.75
2023-05-08T14:42:35.236Z,49.60
2023-05-08T14:45:01.822Z,49.63
2023-05-08T14:47:28.395Z,49.82
2023-05-08T14:49:54.853Z,49.77
2023-05-08T14:52:21.289Z,50.11
2023-05-08T14:54:49.280Z,49.80
2023-05-08T14:57:15.818Z,49.63
2023-05-08T14:59:49.360Z,49.58
2023-05-08T15:02:21.070Z,49.86
2023-05-08T15:04:47.500Z,49.89
2023-05-08T15:07:14.073Z,49.95
2023-05-08T15:09:40.564Z,50.08
2023-05-08T15:12:08.412Z,49.88
2023-05-08T15:14:34.889Z,49.86
2023-05-08T15:17:01.320Z,49.73
2023-05-08T15:19:27.784Z,49.60
2023-05-08T15:21:54.275Z,49.77
2023-05-08T15:24:20.778Z,49.93
2023-05-08T15:26:47.255Z,50.09
2023-05-08T15:29:14.989Z,49.85
2023-05-08T15:31:41.598Z,49.79
2023-05-08T15:34:08.125Z,49.75
2023-05-08T15:36:34.590Z,49.52
2023-05-08T15:39:01.131Z,49.86
2023-05-08T15:41:27.628Z,49.99
2023-05-08T15:43:54.038Z,49.96
2023-05-08T15:46:21.907Z,50.13
2023-05-08T15:48:48.447Z,49.92
2023-05-08T15:51:14.900Z,49.83
2023-05-08T15:53:41.437Z,50.01
2023-05-08T15:56:07.938Z,49.85
2023-05-08T15:58:34.550Z,49.89
2023-05-08T16:01:00.998Z,50.03
2023-05-08T16:03:28.986Z,49.98
2023-05-08T16:05:55.648Z,50.36
2023-05-08T16:08:22.221Z,50.07
2023-05-08T16:10:49.013Z,49.97
2023-05-08T16:13:15.730Z,50.00
2023-05-08T16:15:42.391Z,50.05
2023-05-08T16:18:08.962Z,49.91
2023-05-08T16:20:39.367Z,50.12
2023-05-08T16:23:05.880Z,50.42
2023-05-08T16:25:32.530Z,50.28
2023-05-08T16:27:59.014Z,50.11
2023-05-08T16:30:25.505Z,50.23
2023-05-08T16:32:52.042Z,50.17
2023-05-08T16:35:18.685Z,50.11
2023-05-08T16:37:46.639Z,50.20
2023-05-08T16:40:13.324Z,50.29
2023-05-08T16:42:39.876Z,50.55
2023-05-08T16:45:07.401Z,50.41
2023-05-08T16:47:34.050Z,50.26
2023-05-08T16:50:00.580Z,50.21
2023-05-08T16:52:27.172Z,50.25
2023-05-08T16:54:54.925Z,50.22
2023-05-08T16:57:21.422Z,50.36
2023-05-08T16:59:47.898Z,50.29
2023-05-08T17:02:14.374Z,50.56
2023-05-08T17:04:40.820Z,50.51
2023-05-08T17:07:07.406Z,50.43
2023-05-08T17:09:34.918Z,50.40
2023-05-08T17:12:02.878Z,50.33
2023-05-08T17:14:29.476Z,50.23
2023-05-08T17:16:56.038Z,50.53
2023-05-08T17:19:22.516Z,50.75
2023-05-08T17:21:48.975Z,50.53
2023-05-08T17:24:15.511Z,50.44
2023-05-08T17:26:42.067Z,50.47
2023-05-08T17:29:09.848Z,50.55
2023-05-08T17:31:36.436Z,50.36
2023-05-08T17:34:03.044Z,50.39
2023-05-08T17:36:29.508Z,50.54
2023-05-08T17:38:56.075Z,50.70
2023-05-08T17:41:22.629Z,50.60
2023-05-08T17:43:49.084Z,50.50
2023-05-08T17:46:17.003Z,50.32
2023-05-08T17:48:43.511Z,50.46
2023-05-08T17:51:12.098Z,50.53
2023-05-08T17:53:38.579Z,50.66
2023-05-08T17:56:05.882Z,50.95
2023-05-08T17:58:32.428Z,50.65
2023-05-08T18:00:58.918Z,50.77
2023-05-08T18:03:26.702Z,50.67
2023-05-08T18:05:53.144Z,50.68
2023-05-08T18:08:19.658Z,50.82
2023-05-08T18:10:46.215Z,50.49
2023-05-08T18:13:12.689Z,50.71
2023-05-08T18:15:39.978Z,50.90
2023-05-08T18:18:06.630Z,50.74
2023-05-08T18:20:34.474Z,50.69
2023-05-08T18:23:00.933Z,50.60
2023-05-08T18:25:27.359Z,50.71
2023-05-08T18:27:53.791Z,50.53
2023-05-08T18:30:20.369Z,50.75
2023-05-08T18:32:46.857Z,50.82
2023-05-08T18:35:13.344Z,51.14
2023-05-08T18:37:41.091Z,50.66
2023-05-08T18:40:08.416Z,50.87
2023-05-08T18:42:35.061Z,50.75
2023-05-08T18:45:02.701Z,50.58
2023-05-08T18:47:29.182Z,50.81
2023-05-08T18:49:55.703Z,50.75
2023-05-08T18:52:22.181Z,50.93
2023-05-08T18:54:49.954Z,51.07
2023-05-08T18:57:16.400Z,51.04
2023-05-08T18:59:42.888Z,50.90
2023-05-08T19:02:09.443Z,50.78
2023-05-08T19:04:35.907Z,50.98
2023-05-08T19:07:02.372Z,50.81
2023-05-08T19:09:28.836Z,51.00
2023-05-08T19:11:56.603Z,50.92
2023-05-08T19:14:23.143Z,51.16
2023-05-08T19:16:49.582Z,50.93
2023-05-08T19:19:16.078Z,51.00
2023-05-08T19:21:42.737Z,50.86
2023-05-08T19:24:09.172Z,50.89
2023-05-08T19:26:35.699Z,50.96
2023-05-08T19:29:03.429Z,50.97
2023-05-08T19:31:29.919Z,50.98
2023-05-08T19:33:56.440Z,51.19
2023-05-08T19:36:22.990Z,50.96
2023-05-08T19:38:49.401Z,51.18
2023-05-08T19:41:15.798Z,51.00
2023-05-08T19:43:42.244Z,51.09
2023-05-08T19:46:10.217Z,50.91
2023-05-08T19:48:36.661Z,51.29
2023-05-08T19:51:06.570Z,51.34
2023-05-08T19:53:33.113Z,51.14
2023-05-08T19:55:59.710Z,51.03
2023-05-08T19:58:26.182Z,50.81
2023-05-08T20:00:52.682Z,51.00
2023-05-08T20:03:20.560Z,50.95
2023-05-08T20:05:47.230Z,51.07
2023-05-08T20:08:13.741Z,51.04
2023-05-08T20:10:40.168Z,51.02
2023-05-08T20:13:06.721Z,51.03
2023-05-08T20:15:33.159Z,51.02
2023-05-08T20:17:59.797Z,51.07
2023-05-08T20:20:27.635Z,51.08
2023-05-08T20:22:54.101Z,51.05
2023-05-08T20:25:20.720Z,51.49
2023-05-08T20:27:47.165Z,51.37
2023-05-08T20:30:14.150Z,51.03
2023-05-08T20:32:40.996Z,51.19
2023-05-08T20:35:08.322Z,51.07
2023-05-08T20:37:42.557Z,51.06
2023-05-08T20:40:09.674Z,50.90
2023-05-08T20:42:36.096Z,51.01
2023-05-08T20:45:02.677Z,51.17
2023-05-08T20:47:29.112Z,51.34
2023-05-08T20:49:55.649Z,51.00
2023-05-08T20:52:22.154Z,51.08
2023-05-08T20:54:49.893Z,50.99
2023-05-08T20:57:16.411Z,51.13
2023-05-08T20:59:42.859Z,51.01
2023-05-08T21:02:09.350Z,51.12
2023-05-08T21:04:35.861Z,50.87
2023-05-08T21:07:02.428Z,51.18
2023-05-08T21:09:28.926Z,51.07
2023-05-08T21:11:56.984Z,51.18
2023-05-08T21:14:23.451Z,51.04
2023-05-08T21:16:49.905Z,51.16
2023-05-08T21:19:16.502Z,50.92
2023-05-08T21:21:43.072Z,51.05
2023-05-08T21:24:09.555Z,51.14
2023-05-08T21:26:36.045Z,51.29
2023-05-08T21:29:04.249Z,51.14
2023-05-08T21:31:30.751Z,51.12
2023-05-08T21:33:57.269Z,51.05
2023-05-08T21:36:23.740Z,51.10
2023-05-08T21:38:50.198Z,51.06
2023-05-08T21:41:16.645Z,51.19
2023-05-08T21:43:43.116Z,51.16
2023-05-08T21:46:10.971Z,51.30
2023-05-08T21:48:37.457Z,51.21
2023-05-08T21:51:04.936Z,51.19
2023-05-08T21:53:31.558Z,51.15
2023-05-08T21:55:58.673Z,51.07
2023-05-08T21:58:25.276Z,51.16
2023-05-08T22:00:51.894Z,51.12
2023-05-08T22:03:19.836Z,51.40
2023-05-08T22:05:46.308Z,51.42
2023-05-08T22:08:12.862Z,51.23
2023-05-08T22:10:39.393Z,51.18
2023-05-08T22:13:05.900Z,51.36
2023-05-08T22:15:32.724Z,51.14
2023-05-08T22:17:59.913Z,51.13
2023-05-08T22:20:27.854Z,51.10
2023-05-08T22:22:54.351Z,51.20
2023-05-08T22:25:20.955Z,51.32
2023-05-08T22:27:47.530Z,51.16
2023-05-08T22:30:14.673Z,51.19
2023-05-08T22:32:41.204Z,51.17
2023-05-08T22:35:08.187Z,51.16
2023-05-08T22:37:36.076Z,51.07
2023-05-08T22:40:02.577Z,51.35
2023-05-08T22:42:29.154Z,51.50
2023-05-08T22:44:56.538Z,51.35
2023-05-08T22:47:23.112Z,51.26
2023-05-08T22:49:49.668Z,51.30
2023-05-08T22:52:16.082Z,51.27
2023-05-08T22:54:43.866Z,51.21
2023-05-08T22:57:11.058Z,51.14
2023-05-08T22:59:37.484Z,51.38
2023-05-08T23:02:03.914Z,51.35
2023-05-08T23:04:30.591Z,51.35
2023-05-08T23:06:57.045Z,51.35
2023-05-08T23:09:23.611Z,51.34
2023-05-08T23:11:51.386Z,51.29
2023-05-08T23:14:17.930Z,51.23
2023-05-08T23:16:44.425Z,51.43
2023-05-08T23:19:10.874Z,51.24
2023-05-08T23:21:37.331Z,51.09
2023-05-08T23:24:04.571Z,51.46
2023-05-08T23:26:31.039Z,51.30
2023-05-08T23:28:59.003Z,51.27
2023-05-08T23:31:25.445Z,51.42
2023-05-08T23:33:51.942Z,51.28
2023-05-08T23:36:18.535Z,51.42
2023-05-08T23:38:44.993Z,51.34
2023-05-08T23:41:11.958Z,51.32
2023-05-08T23:43:38.382Z,51.50
2023-05-08T23:46:06.200Z,51.38
2023-05-08T23:48:32.780Z,51.30
2023-05-08T23:50:59.313Z,51.38
2023-05-08T23:53:25.860Z,51.36
2023-05-08T23:55:52.279Z,51.43
2023-05-08T23:58:18.904Z,51.38
